Time;durP1;ratioP1;P1;durP2;ratioP2;P2;SDS_P1;SDS_P2;PMS_P1;PMS_P2;Temp;Humidity;BMP_temperature;BMP_pressure;BME280_temperature;BME280_humidity;BME280_pressure;Samples;Min_cycle;Max_cycle;Signal;HPM_P1;HPM_P2
2023/12/27 00:00:17;;;;;;;3.90;2.10;;;;;;;;;;5080765;28;20175;-84
2023/12/27 00:03:21;;;;;;;5.47;2.50;;;;;;;;;;5091441;28;20183;-83
2023/12/27 00:06:26;;;;;;;4.60;2.10;;;;;;;;;;5103703;28;20187;-83
2023/12/27 00:09:30;;;;;;;4.83;2.40;;;;;;;;;;5103656;28;20170;-83
2023/12/27 00:12:34;;;;;;;7.33;2.67;;;;;;;;;;5090990;28;20179;-84
2023/12/27 00:15:44;;;;;;;3.07;2.13;;;;;;;;;;5103614;28;20187;-83
2023/12/27 00:18:49;;;;;;;6.33;2.10;;;;;;;;;;5103500;28;20223;-83
2023/12/27 00:21:53;;;;;;;7.63;2.13;;;;;;;;;;5090017;28;20524;-83
2023/12/27 00:24:59;;;;;;;6.80;2.03;;;;;;;;;;5090462;28;20182;-83
2023/12/27 00:28:03;;;;;;;6.27;2.30;;;;;;;;;;5088698;28;20707;-83
2023/12/27 00:31:08;;;;;;;7.43;2.17;;;;;;;;;;5090148;28;20175;-83
2023/12/27 00:34:12;;;;;;;3.17;1.80;;;;;;;;;;5089235;28;20178;-83
2023/12/27 00:37:16;;;;;;;6.87;2.60;;;;;;;;;;5090020;28;20226;-83
2023/12/27 00:40:21;;;;;;;6.93;2.40;;;;;;;;;;5089114;28;20171;-84
2023/12/27 00:43:25;;;;;;;2.63;1.70;;;;;;;;;;5077252;28;20179;-83
2023/12/27 00:46:30;;;;;;;4.37;2.03;;;;;;;;;;5100007;28;20178;-83
2023/12/27 00:49:34;;;;;;;4.13;2.00;;;;;;;;;;5076771;28;20171;-83
2023/12/27 00:52:38;;;;;;;7.50;2.10;;;;;;;;;;5087434;28;20178;-83
2023/12/27 00:55:43;;;;;;;3.47;1.97;;;;;;;;;;5087974;28;20183;-84
2023/12/27 00:58:47;;;;;;;6.57;2.13;;;;;;;;;;5086994;28;20230;-83
2023/12/27 01:01:52;;;;;;;6.23;2.00;;;;;;;;;;5075991;28;20183;-84
2023/12/27 01:04:56;;;;;;;3.30;1.93;;;;;;;;;;5076548;28;20178;-83
2023/12/27 01:08:00;;;;;;;3.30;2.00;;;;;;;;;;5077187;28;20679;-83
2023/12/27 01:11:04;;;;;;;4.63;1.97;;;;;;;;;;5076317;28;20171;-84
2023/12/27 01:14:08;;;;;;;4.23;2.00;;;;;;;;;;5100573;28;20174;-84
2023/12/27 01:17:13;;;;;;;6.93;2.57;;;;;;;;;;5087487;28;20210;-83
2023/12/27 01:20:17;;;;;;;6.13;2.47;;;;;;;;;;5086564;28;20559;-83
2023/12/27 01:23:23;;;;;;;6.13;2.03;;;;;;;;;;5085961;28;20175;-83
2023/12/27 01:26:27;;;;;;;4.83;1.80;;;;;;;;;;5075557;28;20187;-83
2023/12/27 01:29:31;;;;;;;4.47;2.10;;;;;;;;;;5099718;28;20178;-84
2023/12/27 01:32:36;;;;;;;8.67;2.10;;;;;;;;;;5075977;28;20174;-84
2023/12/27 01:35:40;;;;;;;6.73;2.00;;;;;;;;;;5098144;28;20179;-83
2023/12/27 01:38:44;;;;;;;4.93;1.90;;;;;;;;;;5086891;28;20222;-83
2023/12/27 01:41:48;;;;;;;4.60;2.03;;;;;;;;;;5086284;28;20183;-83
2023/12/27 01:44:52;;;;;;;3.13;2.10;;;;;;;;;;5094761;28;20191;-83
2023/12/27 01:47:56;;;;;;;7.93;2.40;;;;;;;;;;5079105;28;20218;-83
2023/12/27 01:51:01;;;;;;;4.60;2.13;;;;;;;;;;5089997;28;20179;-83
2023/12/27 01:54:05;;;;;;;3.47;2.00;;;;;;;;;;5078458;28;20174;-83
2023/12/27 01:57:09;;;;;;;5.77;2.27;;;;;;;;;;5067600;28;20210;-83
2023/12/27 02:00:15;;;;;;;3.73;1.97;;;;;;;;;;5078464;28;20207;-83
2023/12/27 02:03:21;;;;;;;5.43;1.70;;;;;;;;;;5078737;28;20183;-83
2023/12/27 02:06:26;;;;;;;3.10;1.80;;;;;;;;;;5090393;28;20178;-84
2023/12/27 02:09:30;;;;;;;4.53;1.80;;;;;;;;;;5066517;28;20171;-83
2023/12/27 02:12:34;;;;;;;2.83;1.80;;;;;;;;;;5089508;28;20183;-83
2023/12/27 02:15:38;;;;;;;5.60;1.90;;;;;;;;;;5101672;28;20179;-83
2023/12/27 02:18:43;;;;;;;3.67;1.50;;;;;;;;;;5078298;28;20222;-83
2023/12/27 02:21:49;;;;;;;5.03;1.70;;;;;;;;;;5078240;28;20175;-83
2023/12/27 02:24:54;;;;;;;4.53;2.07;;;;;;;;;;5078340;28;20179;-83
2023/12/27 02:28:00;;;;;;;4.13;1.80;;;;;;;;;;5089553;28;20214;-83
2023/12/27 02:31:04;;;;;;;8.23;2.10;;;;;;;;;;5077967;28;20174;-83
2023/12/27 02:34:08;;;;;;;2.43;1.57;;;;;;;;;;5077092;28;20179;-83
2023/12/27 02:37:12;;;;;;;3.80;2.00;;;;;;;;;;5089122;28;20226;-83
2023/12/27 02:40:17;;;;;;;4.37;2.20;;;;;;;;;;5066855;28;20207;-83
2023/12/27 02:43:21;;;;;;;2.13;1.73;;;;;;;;;;5100495;28;20178;-83
2023/12/27 02:46:25;;;;;;;3.57;2.10;;;;;;;;;;5089346;28;20179;-83
2023/12/27 02:49:29;;;;;;;5.70;1.80;;;;;;;;;;5100580;28;20178;-84
2023/12/27 02:52:33;;;;;;;4.27;1.80;;;;;;;;;;5065223;28;20175;-82
2023/12/27 02:55:38;;;;;;;6.83;2.10;;;;;;;;;;5076005;28;20183;-83
2023/12/27 02:58:42;;;;;;;2.83;2.07;;;;;;;;;;5088223;28;20222;-83
2023/12/27 03:01:46;;;;;;;6.27;2.00;;;;;;;;;;5077110;28;20179;-82
2023/12/27 03:04:50;;;;;;;4.47;1.93;;;;;;;;;;5088225;28;20636;-84
2023/12/27 03:07:55;;;;;;;3.87;2.00;;;;;;;;;;5076302;28;20211;-82
2023/12/27 03:10:59;;;;;;;5.87;2.00;;;;;;;;;;5099691;28;20175;-84
2023/12/27 03:14:04;;;;;;;6.43;1.87;;;;;;;;;;5100092;28;20183;-84
2023/12/27 03:17:09;;;;;;;6.77;2.43;;;;;;;;;;5087389;28;20214;-83
2023/12/27 03:20:13;;;;;;;7.73;2.37;;;;;;;;;;5088485;28;20211;-82
2023/12/27 03:23:17;;;;;;;5.13;1.80;;;;;;;;;;5087864;28;20183;-83
2023/12/27 03:26:22;;;;;;;4.97;2.00;;;;;;;;;;5064212;28;20186;-83
2023/12/27 03:29:26;;;;;;;4.00;2.13;;;;;;;;;;5076070;28;20171;-83
2023/12/27 03:32:30;;;;;;;7.97;1.70;;;;;;;;;;5086912;28;20182;-83
2023/12/27 03:35:34;;;;;;;2.53;1.80;;;;;;;;;;5063955;28;20528;-83
2023/12/27 03:38:38;;;;;;;3.73;1.73;;;;;;;;;;5075451;28;20222;-83
2023/12/27 03:41:43;;;;;;;3.77;1.70;;;;;;;;;;5076148;28;20639;-83
2023/12/27 03:44:52;;;;;;;4.97;2.33;;;;;;;;;;5087146;28;20186;-84
2023/12/27 03:47:56;;;;;;;5.20;1.87;;;;;;;;;;5075138;28;20210;-83
2023/12/27 03:51:00;;;;;;;4.03;2.00;;;;;;;;;;5098009;28;20517;-85
2023/12/27 03:54:04;;;;;;;4.37;1.87;;;;;;;;;;5087560;28;20623;-83
2023/12/27 03:57:08;;;;;;;4.40;1.80;;;;;;;;;;5099101;28;20210;-83
2023/12/27 04:00:14;;;;;;;3.13;1.93;;;;;;;;;;5075591;28;20203;-83
2023/12/27 04:03:21;;;;;;;5.67;2.00;;;;;;;;;;5087048;28;20174;-84
2023/12/27 04:06:25;;;;;;;4.83;2.13;;;;;;;;;;5086804;28;20183;-83
2023/12/27 04:09:29;;;;;;;3.60;2.07;;;;;;;;;;5075400;28;20179;-85
2023/12/27 04:12:33;;;;;;;4.27;1.80;;;;;;;;;;5086879;28;20186;-83
2023/12/27 04:15:37;;;;;;;2.93;1.90;;;;;;;;;;5086862;28;20524;-84
2023/12/27 04:18:42;;;;;;;3.50;1.90;;;;;;;;;;5086109;28;20218;-83
2023/12/27 04:21:46;;;;;;;3.27;1.63;;;;;;;;;;5087251;28;20171;-84
2023/12/27 04:24:50;;;;;;;3.83;2.03;;;;;;;;;;5063325;28;20525;-83
2023/12/27 04:27:54;;;;;;;3.53;1.80;;;;;;;;;;5098970;28;20214;-84
2023/12/27 04:30:58;;;;;;;3.57;1.90;;;;;;;;;;5098325;28;20171;-84
2023/12/27 04:34:03;;;;;;;4.97;1.90;;;;;;;;;;5087339;28;20183;-84
2023/12/27 04:37:12;;;;;;;7.03;1.80;;;;;;;;;;5086167;28;20222;-83
2023/12/27 04:40:16;;;;;;;5.13;2.00;;;;;;;;;;5086131;28;20544;-83
2023/12/27 04:43:20;;;;;;;3.93;1.77;;;;;;;;;;5075491;28;20194;-84
2023/12/27 04:46:24;;;;;;;3.53;1.83;;;;;;;;;;5075781;28;20664;-84
2023/12/27 04:49:28;;;;;;;6.90;1.77;;;;;;;;;;5075291;28;20179;-84
2023/12/27 04:52:32;;;;;;;3.80;1.87;;;;;;;;;;5087541;28;20182;-84
2023/12/27 04:55:37;;;;;;;3.83;1.50;;;;;;;;;;5087067;28;20179;-83
2023/12/27 04:58:41;;;;;;;3.80;1.70;;;;;;;;;;5086059;28;20219;-83
2023/12/27 05:01:45;;;;;;;4.90;1.63;;;;;;;;;;5086002;28;20163;-84
2023/12/27 05:04:49;;;;;;;4.27;1.70;;;;;;;;;;5086373;28;20183;-83
2023/12/27 05:07:55;;;;;;;5.03;1.70;;;;;;;;;;5087630;28;20218;-83
2023/12/27 05:10:59;;;;;;;2.10;1.33;;;;;;;;;;5087850;28;20179;-84
2023/12/27 05:14:03;;;;;;;5.93;2.23;;;;;;;;;;5087580;28;20536;-85
2023/12/27 05:17:07;;;;;;;2.63;1.60;;;;;;;;;;5086806;28;20214;-84
2023/12/27 05:20:13;;;;;;;2.77;1.90;;;;;;;;;;5101678;28;20210;-83
2023/12/27 05:23:17;;;;;;;5.37;2.20;;;;;;;;;;5102406;28;20218;-84
2023/12/27 05:26:21;;;;;;;4.80;1.77;;;;;;;;;;5088990;28;20182;-83
2023/12/27 05:29:25;;;;;;;7.87;2.50;;;;;;;;;;5077417;28;20179;-83
2023/12/27 05:32:29;;;;;;;4.97;2.03;;;;;;;;;;5101985;28;20174;-83
2023/12/27 05:35:35;;;;;;;5.70;2.03;;;;;;;;;;5101961;28;20527;-83
2023/12/27 05:38:39;;;;;;;4.90;2.13;;;;;;;;;;5101415;28;20218;-84
2023/12/27 05:41:45;;;;;;;4.73;2.13;;;;;;;;;;5101722;28;20203;-83
2023/12/27 05:44:49;;;;;;;4.63;1.97;;;;;;;;;;5101226;28;20187;-83
2023/12/27 05:47:53;;;;;;;7.40;2.37;;;;;;;;;;5077644;28;20218;-84
2023/12/27 05:50:58;;;;;;;6.40;2.43;;;;;;;;;;5089456;28;20175;-83
2023/12/27 05:54:03;;;;;;;5.67;2.40;;;;;;;;;;5101751;28;20179;-83
2023/12/27 05:57:07;;;;;;;4.07;2.27;;;;;;;;;;5091133;28;20560;-84
2023/12/27 06:00:12;;;;;;;4.50;2.10;;;;;;;;;;5089533;28;20202;-84
2023/12/27 06:03:19;;;;;;;3.17;2.00;;;;;;;;;;5078287;28;20179;-83
2023/12/27 06:06:23;;;;;;;3.17;2.03;;;;;;;;;;5089252;28;20187;-83
2023/12/27 06:09:28;;;;;;;5.07;2.20;;;;;;;;;;5088369;28;20179;-85
2023/12/27 06:12:32;;;;;;;5.73;2.53;;;;;;;;;;5102176;28;20183;-84
2023/12/27 06:15:36;;;;;;;4.17;2.37;;;;;;;;;;5089362;28;20187;-84
2023/12/27 06:18:41;;;;;;;4.13;2.23;;;;;;;;;;5100453;28;20679;-84
2023/12/27 06:21:45;;;;;;;8.00;2.63;;;;;;;;;;5101049;28;20208;-83
2023/12/27 06:24:49;;;;;;;2.77;2.23;;;;;;;;;;5102062;28;20182;-83
2023/12/27 06:27:54;;;;;;;6.00;2.17;;;;;;;;;;5101546;28;20215;-84
2023/12/27 06:30:58;;;;;;;6.50;2.63;;;;;;;;;;5086940;28;20175;-84
2023/12/27 06:34:02;;;;;;;4.23;2.20;;;;;;;;;;5101303;28;20183;-82
2023/12/27 06:37:07;;;;;;;4.93;2.20;;;;;;;;;;5102050;28;20569;-83
2023/12/27 06:40:11;;;;;;;3.83;2.23;;;;;;;;;;5078113;28;20210;-83
2023/12/27 06:43:16;;;;;;;5.27;2.63;;;;;;;;;;5101098;28;20183;-83
2023/12/27 06:46:20;;;;;;;4.97;2.50;;;;;;;;;;5077058;28;20179;-83
2023/12/27 06:49:24;;;;;;;3.80;2.10;;;;;;;;;;5088278;28;20175;-83
2023/12/27 06:52:28;;;;;;;8.27;2.30;;;;;;;;;;5088575;28;20175;-83
2023/12/27 06:55:32;;;;;;;4.80;2.23;;;;;;;;;;5101090;28;20174;-83
2023/12/27 06:58:37;;;;;;;5.73;2.23;;;;;;;;;;5088348;28;20560;-83
2023/12/27 07:01:42;;;;;;;6.90;2.67;;;;;;;;;;5099577;28;20548;-83
2023/12/27 07:04:46;;;;;;;4.60;2.23;;;;;;;;;;5076474;28;20174;-83
2023/12/27 07:07:50;;;;;;;5.93;2.27;;;;;;;;;;5088043;28;20570;-83
2023/12/27 07:10:55;;;;;;;5.67;2.13;;;;;;;;;;5088659;28;20174;-84
2023/12/27 07:13:59;;;;;;;8.83;2.53;;;;;;;;;;5088295;28;20178;-83
2023/12/27 07:17:04;;;;;;;6.80;2.10;;;;;;;;;;5087794;28;20222;-83
2023/12/27 07:20:09;;;;;;;6.33;3.40;;;;;;;;;;5100248;28;20178;-83
2023/12/27 07:23:14;;;;;;;6.57;3.20;;;;;;;;;;5100226;28;20297;-81
2023/12/27 07:26:18;;;;;;;7.07;2.70;;;;;;;;;;5087229;28;20171;-83
2023/12/27 07:29:22;;;;;;;7.47;2.50;;;;;;;;;;5087292;28;20174;-83
2023/12/27 07:32:27;;;;;;;5.70;2.47;;;;;;;;;;5098074;28;20179;-83
2023/12/27 07:35:32;;;;;;;8.50;2.30;;;;;;;;;;5098061;28;20183;-83
2023/12/27 07:38:36;;;;;;;6.40;2.60;;;;;;;;;;5098572;28;20222;-83
2023/12/27 07:41:40;;;;;;;3.60;2.27;;;;;;;;;;5086243;28;20203;-83
2023/12/27 07:44:45;;;;;;;8.17;2.50;;;;;;;;;;5086253;28;20186;-84
2023/12/27 07:47:49;;;;;;;6.87;2.20;;;;;;;;;;5086331;28;20215;-83
2023/12/27 07:50:55;;;;;;;6.47;2.53;;;;;;;;;;5086608;28;20182;-82
2023/12/27 07:53:59;;;;;;;5.80;2.00;;;;;;;;;;5086802;28;20183;-82
2023/12/27 07:57:03;;;;;;;8.77;2.60;;;;;;;;;;5086842;28;20695;-83
2023/12/27 08:00:09;;;;;;;5.40;2.20;;;;;;;;;;5086337;28;20178;-82
2023/12/27 08:03:16;;;;;;;3.00;2.20;;;;;;;;;;5086255;28;20179;-82
2023/12/27 08:06:21;;;;;;;4.30;2.00;;;;;;;;;;5085631;28;20178;-82
2023/12/27 08:09:26;;;;;;;6.33;2.00;;;;;;;;;;5086162;28;20178;-82
2023/12/27 08:12:30;;;;;;;3.77;2.00;;;;;;;;;;5098105;28;20171;-81
2023/12/27 08:15:35;;;;;;;6.87;2.50;;;;;;;;;;5085436;28;20174;-82
2023/12/27 08:18:39;;;;;;;5.37;2.00;;;;;;;;;;5085537;28;20210;-82
2023/12/27 08:21:43;;;;;;;5.23;2.20;;;;;;;;;;5097497;28;20202;-81
2023/12/27 08:24:47;;;;;;;5.50;1.73;;;;;;;;;;5085224;28;20170;-81
2023/12/27 08:27:52;;;;;;;7.47;2.00;;;;;;;;;;5098101;28;20222;-83
2023/12/27 08:30:56;;;;;;;4.47;2.00;;;;;;;;;;5099358;28;20175;-82
2023/12/27 08:34:02;;;;;;;3.47;1.70;;;;;;;;;;5085211;28;20175;-83
2023/12/27 08:37:06;;;;;;;5.97;1.60;;;;;;;;;;5072979;28;20222;-83
2023/12/27 08:40:11;;;;;;;5.93;2.03;;;;;;;;;;5097394;28;20489;-82
2023/12/27 08:43:14;;;;;;;5.10;2.53;;;;;;;;;;5085020;28;20178;-82
2023/12/27 08:46:22;;;;;;;6.10;2.37;;;;;;;;;;5096809;28;20179;-83
2023/12/27 08:49:26;;;;;;;6.27;2.60;;;;;;;;;;5084813;28;20179;-82
2023/12/27 08:52:30;;;;;;;9.97;2.30;;;;;;;;;;5085671;28;20167;-83
2023/12/27 08:55:34;;;;;;;5.57;2.27;;;;;;;;;;5096983;28;20179;-84
2023/12/27 08:58:39;;;;;;;5.17;2.50;;;;;;;;;;5097767;28;20210;-83
2023/12/27 09:01:43;;;;;;;5.97;2.40;;;;;;;;;;5098513;28;20206;-82
2023/12/27 09:04:48;;;;;;;2.93;2.33;;;;;;;;;;5062466;28;20187;-83
2023/12/27 09:07:52;;;;;;;6.57;2.70;;;;;;;;;;5084932;28;20214;-83
2023/12/27 09:10:56;;;;;;;8.97;2.37;;;;;;;;;;5085878;28;20183;-83
2023/12/27 09:14:00;;;;;;;8.20;2.33;;;;;;;;;;5086744;28;20182;-83
2023/12/27 09:17:05;;;;;;;7.97;2.63;;;;;;;;;;5086075;28;20218;-83
2023/12/27 09:20:09;;;;;;;6.57;2.53;;;;;;;;;;5074158;28;20521;-82
2023/12/27 09:23:13;;;;;;;6.13;2.43;;;;;;;;;;5098405;28;20175;-83
2023/12/27 09:26:18;;;;;;;3.87;2.23;;;;;;;;;;5084851;28;20175;-82
2023/12/27 09:29:22;;;;;;;5.53;2.50;;;;;;;;;;5085554;28;20179;-82
2023/12/27 09:32:26;;;;;;;4.57;2.17;;;;;;;;;;5062582;28;20246;-83
2023/12/27 09:35:30;;;;;;;4.13;2.57;;;;;;;;;;5086134;28;20179;-82
2023/12/27 09:38:37;;;;;;;5.57;1.97;;;;;;;;;;5096647;28;20222;-82
2023/12/27 09:41:43;;;;;;;3.47;1.97;;;;;;;;;;5097828;28;20203;-83
2023/12/27 09:44:48;;;;;;;3.10;1.73;;;;;;;;;;5095976;28;20183;-84
2023/12/27 09:47:55;;;;;;;3.83;2.23;;;;;;;;;;5095503;28;20226;-84
2023/12/27 09:51:00;;;;;;;2.97;2.00;;;;;;;;;;5095748;28;20196;-85
2023/12/27 09:54:04;;;;;;;4.93;2.20;;;;;;;;;;5084233;28;20183;-84
2023/12/27 09:57:10;;;;;;;4.73;1.90;;;;;;;;;;5083446;28;20210;-85
2023/12/27 10:00:16;;;;;;;4.83;1.90;;;;;;;;;;5095366;28;20517;-84
2023/12/27 10:03:35;;;;;;;3.07;1.63;;;;;;;;;;5083776;28;20167;-84
2023/12/27 10:06:47;;;;;;;2.73;1.93;;;;;;;;;;5086437;28;20175;-84
2023/12/27 10:09:52;;;;;;;2.90;1.67;;;;;;;;;;5099116;28;20175;-84
2023/12/27 10:13:02;;;;;;;5.87;2.03;;;;;;;;;;5098436;28;20171;-85
2023/12/27 10:16:07;;;;;;;4.07;1.83;;;;;;;;;;5087311;28;20175;-82
2023/12/27 10:19:37;;;;;;;5.73;1.80;;;;;;;;;;5099441;28;20175;-84
2023/12/27 10:22:41;;;;;;;3.97;2.20;;;;;;;;;;5099822;28;20544;-84
2023/12/27 10:25:45;;;;;;;3.50;1.77;;;;;;;;;;5099509;28;20179;-84
2023/12/27 10:28:50;;;;;;;2.83;1.80;;;;;;;;;;5099772;28;20215;-83
2023/12/27 10:31:54;;;;;;;4.53;2.00;;;;;;;;;;5098104;28;20179;-83
2023/12/27 10:34:58;;;;;;;3.37;1.63;;;;;;;;;;5086444;28;20520;-83
2023/12/27 10:38:04;;;;;;;4.43;1.67;;;;;;;;;;5086407;28;20564;-84
2023/12/27 10:41:08;;;;;;;3.00;1.57;;;;;;;;;;5074725;28;20175;-83
2023/12/27 10:44:17;;;;;;;3.43;1.73;;;;;;;;;;5099578;28;20190;-83
2023/12/27 10:47:23;;;;;;;4.77;1.60;;;;;;;;;;5098204;28;20219;-82
2023/12/27 10:50:29;;;;;;;2.97;1.80;;;;;;;;;;5086020;28;20548;-83
2023/12/27 10:53:37;;;;;;;1.73;1.20;;;;;;;;;;5098583;28;20517;-83
2023/12/27 10:56:41;;;;;;;3.40;1.60;;;;;;;;;;5074026;28;20179;-84
2023/12/27 10:59:47;;;;;;;2.33;1.63;;;;;;;;;;5085341;28;20544;-84
2023/12/27 11:02:51;;;;;;;4.27;1.60;;;;;;;;;;5085101;28;20207;-83
2023/12/27 11:05:59;;;;;;;1.73;1.27;;;;;;;;;;5096711;28;20182;-83
2023/12/27 11:09:07;;;;;;;2.93;1.60;;;;;;;;;;5096761;28;20521;-84
2023/12/27 11:12:14;;;;;;;4.17;1.90;;;;;;;;;;5073429;28;20175;-83
2023/12/27 11:15:19;;;;;;;4.30;1.50;;;;;;;;;;5097320;28;20171;-83
2023/12/27 11:18:25;;;;;;;4.10;1.90;;;;;;;;;;5095539;28;20695;-83
2023/12/27 11:21:29;;;;;;;3.43;1.50;;;;;;;;;;5096643;28;20549;-83
2023/12/27 11:24:36;;;;;;;2.80;1.67;;;;;;;;;;5095935;28;20183;-83
2023/12/27 11:27:42;;;;;;;2.90;1.70;;;;;;;;;;5097158;28;20219;-83
2023/12/27 11:30:47;;;;;;;1.80;1.40;;;;;;;;;;5096731;28;20182;-84
2023/12/27 11:33:52;;;;;;;2.40;1.23;;;;;;;;;;5084389;28;20179;-83
2023/12/27 11:36:56;;;;;;;3.23;1.53;;;;;;;;;;5096847;28;20714;-83
2023/12/27 11:40:00;;;;;;;2.63;1.43;;;;;;;;;;5084413;28;20175;-84
2023/12/27 11:43:06;;;;;;;5.10;1.50;;;;;;;;;;5064281;28;20226;-83
2023/12/27 11:46:13;;;;;;;2.90;1.77;;;;;;;;;;5095850;28;20183;-83
2023/12/27 11:49:21;;;;;;;2.93;1.40;;;;;;;;;;5096182;28;20183;-84
2023/12/27 11:52:26;;;;;;;3.40;1.60;;;;;;;;;;5096602;28;20179;-84
2023/12/27 11:55:33;;;;;;;5.80;1.60;;;;;;;;;;5083617;28;20525;-82
2023/12/27 11:58:39;;;;;;;3.47;1.50;;;;;;;;;;5096243;28;20219;-84
2023/12/27 12:01:43;;;;;;;2.43;1.27;;;;;;;;;;5083932;28;20210;-84
2023/12/27 12:05:00;;;;;;;2.47;1.50;;;;;;;;;;5096895;28;20179;-84
2023/12/27 12:08:26;;;;;;;3.50;1.40;;;;;;;;;;5096776;28;20215;-84
2023/12/27 12:11:34;;;;;;;2.60;1.30;;;;;;;;;;5083926;28;20183;-84
2023/12/27 12:14:39;;;;;;;2.77;1.40;;;;;;;;;;5069088;28;20203;-84
2023/12/27 12:17:44;;;;;;;1.77;1.10;;;;;;;;;;5040612;28;20219;-83
2023/12/27 12:20:50;;;;;;;4.00;1.37;;;;;;;;;;5075964;28;20180;-83
2023/12/27 12:23:54;;;;;;;1.63;1.40;;;;;;;;;;5063698;28;20167;-84
2023/12/27 12:26:59;;;;;;;3.57;1.70;;;;;;;;;;5074444;28;20573;-83
2023/12/27 12:30:06;;;;;;;2.37;1.33;;;;;;;;;;5073833;28;20194;-84
2023/12/27 12:33:10;;;;;;;1.67;1.30;;;;;;;;;;5096269;28;20171;-82
2023/12/27 12:36:16;;;;;;;1.83;1.27;;;;;;;;;;5071965;28;20175;-81
2023/12/27 12:39:20;;;;;;;2.70;1.60;;;;;;;;;;5083778;28;20182;-80
2023/12/27 12:42:25;;;;;;;2.67;1.40;;;;;;;;;;5085176;28;20210;-83
2023/12/27 12:45:32;;;;;;;5.07;1.80;;;;;;;;;;5072783;28;20179;-82
2023/12/27 12:48:36;;;;;;;3.90;1.60;;;;;;;;;;5083453;28;20218;-84
2023/12/27 12:51:41;;;;;;;3.50;1.60;;;;;;;;;;5095285;28;20187;-84
2023/12/27 12:54:48;;;;;;;2.90;1.47;;;;;;;;;;5094778;28;20191;-84
2023/12/27 12:57:52;;;;;;;2.13;1.50;;;;;;;;;;5082750;28;20214;-83
2023/12/27 13:00:56;;;;;;;3.13;1.33;;;;;;;;;;5094598;28;20183;-84
2023/12/27 13:04:00;;;;;;;2.87;1.40;;;;;;;;;;5094208;28;20206;-83
2023/12/27 13:07:07;;;;;;;2.17;1.40;;;;;;;;;;5071389;28;20556;-82
2023/12/27 13:10:11;;;;;;;2.90;1.47;;;;;;;;;;5095480;28;20182;-84
2023/12/27 13:13:16;;;;;;;2.23;1.30;;;;;;;;;;5082635;28;20653;-83
2023/12/27 13:16:21;;;;;;;2.93;1.37;;;;;;;;;;5095487;28;20183;-83
2023/12/27 13:19:25;;;;;;;3.63;1.30;;;;;;;;;;5082727;28;20187;-84
2023/12/27 13:22:30;;;;;;;3.93;1.30;;;;;;;;;;5083402;28;20206;-84
2023/12/27 13:25:38;;;;;;;2.27;1.40;;;;;;;;;;5096267;28;20493;-83
2023/12/27 13:28:42;;;;;;;2.70;1.27;;;;;;;;;;5089690;28;20219;-84
2023/12/27 13:31:47;;;;;;;1.87;1.50;;;;;;;;;;5078162;28;20187;-83
2023/12/27 13:34:51;;;;;;;2.73;1.50;;;;;;;;;;5100774;28;20187;-83
2023/12/27 13:37:56;;;;;;;2.23;1.30;;;;;;;;;;5088872;28;20230;-84
2023/12/27 13:41:00;;;;;;;2.17;1.40;;;;;;;;;;5105692;28;20179;-83
2023/12/27 13:44:05;;;;;;;2.40;1.20;;;;;;;;;;5095540;28;20226;-83
2023/12/27 13:47:09;;;;;;;2.17;1.30;;;;;;;;;;5091007;28;20222;-83
2023/12/27 13:50:14;;;;;;;2.63;1.33;;;;;;;;;;5074539;28;20179;-83
2023/12/27 13:53:18;;;;;;;5.97;1.30;;;;;;;;;;5098915;28;20512;-81
2023/12/27 13:56:23;;;;;;;3.67;1.47;;;;;;;;;;5099238;28;20616;-84
2023/12/27 13:59:28;;;;;;;3.10;1.27;;;;;;;;;;5063969;28;20178;-82
2023/12/27 14:02:32;;;;;;;3.53;1.30;;;;;;;;;;5103148;28;20675;-83
2023/12/27 14:05:38;;;;;;;9.30;8.47;;;;;;;;;;5101464;28;20183;-83
2023/12/27 14:08:42;;;;;;;2.50;1.30;;;;;;;;;;5101834;28;20211;-84
2023/12/27 14:11:46;;;;;;;1.87;1.20;;;;;;;;;;5102883;28;20183;-83
2023/12/27 14:14:50;;;;;;;2.97;1.20;;;;;;;;;;5102481;28;20187;-84
2023/12/27 14:17:54;;;;;;;3.57;1.20;;;;;;;;;;5102439;28;20214;-86
2023/12/27 14:20:59;;;;;;;4.40;1.47;;;;;;;;;;5102416;28;20178;-84
2023/12/27 14:24:03;;;;;;;2.83;1.17;;;;;;;;;;5100784;28;20663;-84
2023/12/27 14:27:07;;;;;;;2.73;1.20;;;;;;;;;;5089187;28;20214;-84
2023/12/27 14:30:11;;;;;;;3.83;1.40;;;;;;;;;;5104127;28;20174;-83
2023/12/27 14:33:16;;;;;;;2.70;1.70;;;;;;;;;;5106672;28;20179;-83
2023/12/27 14:36:20;;;;;;;3.37;1.20;;;;;;;;;;5094327;28;20183;-83
2023/12/27 14:39:25;;;;;;;2.00;0.97;;;;;;;;;;5095382;28;20175;-84
2023/12/27 14:42:30;;;;;;;3.77;1.00;;;;;;;;;;5096049;28;20204;-84
2023/12/27 14:45:35;;;;;;;1.17;0.80;;;;;;;;;;5095690;28;20178;-83
2023/12/27 14:48:39;;;;;;;2.23;1.40;;;;;;;;;;5106417;28;20675;-84
2023/12/27 14:51:44;;;;;;;1.53;1.13;;;;;;;;;;5081959;28;20183;-83
2023/12/27 14:54:48;;;;;;;5.60;1.43;;;;;;;;;;5105860;28;20179;-83
2023/12/27 14:57:52;;;;;;;3.70;1.80;;;;;;;;;;5106834;28;20214;-83
2023/12/27 15:00:56;;;;;;;3.40;1.63;;;;;;;;;;5094066;28;20239;-83
2023/12/27 15:04:05;;;;;;;1.93;1.30;;;;;;;;;;5093567;28;20548;-84
2023/12/27 15:07:09;;;;;;;1.90;1.03;;;;;;;;;;5105411;28;20215;-83
2023/12/27 15:10:14;;;;;;;7.07;1.53;;;;;;;;;;5092599;28;20175;-83
2023/12/27 15:13:18;;;;;;;3.57;1.20;;;;;;;;;;5093282;28;20175;-84
2023/12/27 15:16:22;;;;;;;4.17;1.20;;;;;;;;;;5104371;28;20182;-84
2023/12/27 15:19:28;;;;;;;4.23;1.30;;;;;;;;;;5104201;28;20179;-83
2023/12/27 15:22:33;;;;;;;2.63;1.20;;;;;;;;;;5104071;28;20183;-83
2023/12/27 15:25:38;;;;;;;2.20;1.30;;;;;;;;;;5104507;28;20659;-83
2023/12/27 15:28:42;;;;;;;2.37;1.50;;;;;;;;;;5090956;28;20659;-83
2023/12/27 15:31:46;;;;;;;2.77;1.47;;;;;;;;;;5079193;28;20628;-83
2023/12/27 15:34:50;;;;;;;2.87;1.60;;;;;;;;;;5102672;28;20172;-84
2023/12/27 15:37:56;;;;;;;3.03;1.67;;;;;;;;;;5103487;28;20230;-84
2023/12/27 15:41:00;;;;;;;2.37;1.60;;;;;;;;;;5102290;28;20170;-84
2023/12/27 15:44:05;;;;;;;2.83;1.77;;;;;;;;;;5077891;28;20207;-84
2023/12/27 15:47:09;;;;;;;3.53;1.50;;;;;;;;;;5103157;28;20210;-86
2023/12/27 15:50:14;;;;;;;1.97;1.60;;;;;;;;;;5101135;28;20513;-83
2023/12/27 15:53:18;;;;;;;3.10;1.50;;;;;;;;;;5101853;28;20179;-84
2023/12/27 15:56:51;;;;;;;2.23;1.80;;;;;;;;;;5089383;28;20178;-85
2023/12/27 15:59:55;;;;;;;3.53;1.80;;;;;;;;;;5100271;28;20187;-84
2023/12/27 16:02:59;;;;;;;4.83;1.90;;;;;;;;;;5102026;28;20701;-84
2023/12/27 16:06:04;;;;;;;3.97;1.90;;;;;;;;;;5099485;28;20175;-84
2023/12/27 16:09:12;;;;;;;2.27;1.60;;;;;;;;;;5087271;28;20179;-84
2023/12/27 16:12:17;;;;;;;2.53;1.80;;;;;;;;;;5099494;28;20175;-85
2023/12/27 16:15:21;;;;;;;3.10;2.10;;;;;;;;;;5099212;28;20166;-82
2023/12/27 16:18:25;;;;;;;3.57;1.90;;;;;;;;;;5097776;28;20715;-84
2023/12/27 16:21:29;;;;;;;3.37;2.20;;;;;;;;;;5085812;28;20175;-84
2023/12/27 16:24:33;;;;;;;8.07;2.50;;;;;;;;;;5085957;28;20211;-83
2023/12/27 16:27:37;;;;;;;8.23;4.40;;;;;;;;;;5085860;28;20214;-83
2023/12/27 16:30:42;;;;;;;7.83;4.80;;;;;;;;;;5097989;28;20175;-85
2023/12/27 16:33:46;;;;;;;5.03;3.80;;;;;;;;;;5085452;28;20183;-83
2023/12/27 16:36:53;;;;;;;6.17;3.57;;;;;;;;;;5098948;28;20205;-84
2023/12/27 16:40:00;;;;;;;4.33;3.47;;;;;;;;;;5085600;28;20175;-83
2023/12/27 16:43:05;;;;;;;9.10;2.70;;;;;;;;;;5084983;28;20190;-84
2023/12/27 16:46:10;;;;;;;4.23;2.53;;;;;;;;;;5096850;28;20183;-83
2023/12/27 16:49:14;;;;;;;4.17;2.40;;;;;;;;;;5098595;28;20183;-84
2023/12/27 16:52:19;;;;;;;3.80;2.77;;;;;;;;;;5098080;28;20178;-83
2023/12/27 16:55:24;;;;;;;3.40;2.27;;;;;;;;;;5085696;28;20170;-84
2023/12/27 16:58:29;;;;;;;4.93;2.13;;;;;;;;;;5098620;28;20211;-83
2023/12/27 17:01:33;;;;;;;8.47;4.07;;;;;;;;;;5098249;28;20171;-84
2023/12/27 17:04:37;;;;;;;7.33;4.20;;;;;;;;;;5098058;28;20210;-84
2023/12/27 17:07:42;;;;;;;9.20;5.47;;;;;;;;;;5097398;28;20205;-84
2023/12/27 17:10:46;;;;;;;9.10;5.77;;;;;;;;;;5085134;28;20247;-83
2023/12/27 17:13:51;;;;;;;7.10;3.50;;;;;;;;;;5096257;28;20171;-83
2023/12/27 17:16:55;;;;;;;4.57;2.73;;;;;;;;;;5084321;28;20691;-82
2023/12/27 17:20:00;;;;;;;3.67;2.87;;;;;;;;;;5084808;28;20175;-83
2023/12/27 17:23:04;;;;;;;3.33;2.47;;;;;;;;;;5084636;28;20178;-83
2023/12/27 17:26:10;;;;;;;3.50;2.70;;;;;;;;;;5086607;28;20183;-85
2023/12/27 17:29:15;;;;;;;5.17;2.90;;;;;;;;;;5099950;28;20171;-85
2023/12/27 17:32:20;;;;;;;5.50;2.80;;;;;;;;;;5087764;28;20171;-85
2023/12/27 17:35:24;;;;;;;4.77;2.60;;;;;;;;;;5100057;28;20174;-85
2023/12/27 17:38:29;;;;;;;3.77;2.53;;;;;;;;;;5099803;28;20221;-85
2023/12/27 17:41:34;;;;;;;6.83;2.93;;;;;;;;;;5076413;28;20187;-84
2023/12/27 17:44:38;;;;;;;5.30;2.87;;;;;;;;;;5087169;28;20207;-84
2023/12/27 17:47:42;;;;;;;4.43;3.10;;;;;;;;;;5085189;28;20215;-84
2023/12/27 17:50:46;;;;;;;8.20;3.87;;;;;;;;;;5095782;28;20183;-84
2023/12/27 17:53:51;;;;;;;3.60;2.73;;;;;;;;;;5096041;28;20174;-83
2023/12/27 17:56:55;;;;;;;4.13;2.63;;;;;;;;;;5084330;28;20214;-85
2023/12/27 17:59:59;;;;;;;4.37;2.57;;;;;;;;;;5084714;28;20179;-86
2023/12/27 18:03:04;;;;;;;5.80;3.47;;;;;;;;;;5085811;28;20175;-85
2023/12/27 18:06:12;;;;;;;5.60;2.90;;;;;;;;;;5099588;28;20209;-85
2023/12/27 18:09:16;;;;;;;4.23;3.03;;;;;;;;;;5086866;28;20183;-84
2023/12/27 18:12:20;;;;;;;4.63;3.83;;;;;;;;;;5071906;28;20178;-83
2023/12/27 18:15:24;;;;;;;6.13;3.77;;;;;;;;;;5083935;28;20175;-82
2023/12/27 18:18:28;;;;;;;9.03;4.90;;;;;;;;;;5096077;28;20206;-83
2023/12/27 18:21:33;;;;;;;9.57;5.93;;;;;;;;;;5096530;28;20175;-82
2023/12/27 18:24:39;;;;;;;11.57;6.73;;;;;;;;;;5095572;28;20203;-82
2023/12/27 18:27:46;;;;;;;8.57;5.27;;;;;;;;;;5087234;28;20210;-83